createdAt,value
2019-03-24T00:00:52.555Z,3.12
2019-03-24T00:01:52.532Z,3.12
2019-03-24T00:02:52.514Z,3.11
2019-03-24T00:03:52.494Z,3.08
2019-03-24T00:04:52.472Z,3.06
2019-03-24T00:05:52.454Z,3.08
2019-03-24T00:06:52.437Z,3.15
2019-03-24T00:07:52.416Z,3.06
2019-03-24T00:08:52.398Z,3.09
2019-03-24T00:09:52.382Z,3.06
2019-03-24T00:10:52.362Z,3.05
2019-03-24T00:11:52.347Z,3.01
2019-03-24T00:12:52.325Z,3.06
2019-03-24T00:13:52.307Z,3.01
2019-03-24T00:14:52.293Z,3.03
2019-03-24T00:15:52.269Z,3.01
2019-03-24T00:16:52.251Z,3.01
2019-03-24T00:17:52.230Z,3.00
2019-03-24T00:18:52.205Z,2.93
2019-03-24T00:19:52.189Z,2.93
2019-03-24T00:20:52.172Z,3.03
2019-03-24T00:21:52.152Z,3.01
2019-03-24T00:22:52.136Z,2.93
2019-03-24T00:23:52.116Z,2.98
2019-03-24T00:24:52.094Z,2.95
2019-03-24T00:25:52.093Z,3.01
2019-03-24T00:26:52.054Z,3.00
2019-03-24T00:27:52.039Z,2.97
2019-03-24T00:28:52.025Z,2.87
2019-03-24T00:29:51.999Z,2.90
2019-03-24T00:30:51.984Z,2.88
2019-03-24T00:31:51.966Z,2.91
2019-03-24T00:32:51.944Z,2.94
2019-03-24T00:33:51.927Z,2.88
2019-03-24T00:34:51.911Z,2.91
2019-03-24T00:35:51.889Z,2.98
2019-03-24T00:36:51.872Z,2.88
2019-03-24T00:37:51.852Z,2.91
2019-03-24T00:38:51.834Z,2.94
2019-03-24T00:39:51.814Z,2.95
2019-03-24T00:40:51.792Z,2.88
2019-03-24T00:41:51.772Z,2.87
2019-03-24T00:42:51.753Z,2.87
2019-03-24T00:43:51.736Z,2.93
2019-03-24T00:44:51.719Z,2.88
2019-03-24T00:45:51.696Z,2.93
2019-03-24T00:46:51.682Z,2.88
2019-03-24T00:47:51.664Z,2.91
2019-03-24T00:48:51.644Z,2.83
2019-03-24T00:49:51.622Z,2.85
2019-03-24T00:50:51.603Z,2.82
2019-03-24T00:51:51.583Z,2.80
2019-03-24T00:52:51.565Z,2.77
2019-03-24T00:53:51.545Z,2.77
2019-03-24T00:54:51.525Z,2.73
2019-03-24T00:55:51.505Z,2.77
2019-03-24T00:56:51.491Z,2.79
2019-03-24T00:57:51.470Z,2.76
2019-03-24T00:58:51.451Z,2.75
2019-03-24T00:59:51.432Z,2.76
2019-03-24T01:00:51.414Z,2.82
2019-03-24T01:01:51.392Z,2.85
2019-03-24T01:02:51.372Z,2.75
2019-03-24T01:03:51.357Z,2.72
2019-03-24T01:04:51.340Z,2.68
2019-03-24T01:05:51.317Z,2.69
2019-03-24T01:06:51.299Z,2.65
2019-03-24T01:07:51.279Z,2.57
2019-03-24T01:08:51.264Z,2.68
2019-03-24T01:09:51.238Z,2.58
2019-03-24T01:10:51.226Z,2.58
2019-03-24T01:11:51.202Z,2.55
2019-03-24T01:12:51.185Z,2.59
2019-03-24T01:13:51.162Z,2.59
2019-03-24T01:14:51.144Z,2.54
2019-03-24T01:15:51.126Z,2.51
2019-03-24T01:16:51.112Z,2.57
2019-03-24T01:17:51.091Z,2.58
2019-03-24T01:18:51.074Z,2.55
2019-03-24T01:19:51.049Z,2.57
2019-03-24T01:20:51.029Z,2.58
2019-03-24T01:21:51.011Z,2.57
2019-03-24T01:22:50.990Z,2.58
2019-03-24T01:23:50.973Z,2.55
2019-03-24T01:24:50.953Z,2.62
2019-03-24T01:25:50.935Z,2.62
2019-03-24T01:26:50.913Z,2.61
2019-03-24T01:27:50.891Z,2.55
2019-03-24T01:28:50.875Z,2.55
2019-03-24T01:29:50.861Z,2.52
2019-03-24T01:30:50.842Z,2.58
2019-03-24T01:31:50.817Z,2.55
2019-03-24T01:32:50.799Z,2.54
2019-03-24T01:33:50.780Z,2.54
2019-03-24T01:34:50.762Z,2.61
2019-03-24T01:35:50.741Z,2.59
2019-03-24T01:36:50.724Z,2.46
2019-03-24T01:37:50.699Z,2.57
2019-03-24T01:38:50.674Z,2.47
2019-03-24T01:39:50.664Z,2.37
2019-03-24T01:40:50.644Z,2.46
2019-03-24T01:41:50.625Z,2.50
2019-03-24T01:42:50.608Z,2.57
2019-03-24T01:43:50.585Z,2.51
2019-03-24T01:44:50.564Z,2.47
2019-03-24T01:45:58.129Z,2.46
2019-03-24T01:46:50.529Z,2.44
2019-03-24T01:47:50.514Z,2.39
2019-03-24T01:48:50.486Z,2.39
2019-03-24T01:49:50.474Z,2.40
2019-03-24T01:50:50.455Z,2.36
2019-03-24T01:51:50.433Z,2.40
2019-03-24T01:52:50.410Z,2.40
2019-03-24T01:53:50.397Z,2.39
2019-03-24T01:54:50.373Z,2.43
2019-03-24T01:55:50.357Z,2.37
2019-03-24T01:56:50.337Z,2.36
2019-03-24T01:57:50.322Z,2.33
2019-03-24T01:58:50.300Z,2.39
2019-03-24T01:59:50.284Z,2.37
2019-03-24T02:00:50.257Z,2.26
2019-03-24T02:01:50.237Z,2.36
2019-03-24T02:02:50.218Z,2.30
2019-03-24T02:03:50.202Z,2.33
2019-03-24T02:04:50.181Z,2.23
2019-03-24T02:05:50.158Z,2.22
2019-03-24T02:06:50.142Z,2.30
2019-03-24T02:07:50.127Z,2.26
2019-03-24T02:08:50.109Z,2.22
2019-03-24T02:09:50.085Z,2.16
2019-03-24T02:10:50.064Z,2.28
2019-03-24T02:11:50.928Z,2.21
2019-03-24T02:12:50.026Z,2.23
2019-03-24T02:13:50.011Z,2.22
2019-03-24T02:14:49.987Z,2.23
2019-03-24T02:15:49.968Z,2.16
2019-03-24T02:16:49.966Z,2.15
2019-03-24T02:17:49.930Z,2.15
2019-03-24T02:18:49.916Z,2.10
2019-03-24T02:19:49.892Z,2.14
2019-03-24T02:20:49.871Z,2.05
2019-03-24T02:21:49.847Z,2.08
2019-03-24T02:22:49.829Z,2.19
2019-03-24T02:23:49.814Z,2.18
2019-03-24T02:24:49.814Z,2.12
2019-03-24T02:25:49.773Z,2.05
2019-03-24T02:26:49.757Z,2.12
2019-03-24T02:27:49.735Z,2.03
2019-03-24T02:28:49.716Z,1.93
2019-03-24T02:29:49.694Z,2.00
2019-03-24T02:30:49.760Z,1.98
2019-03-24T02:31:49.658Z,1.86
2019-03-24T02:32:49.644Z,1.88
2019-03-24T02:33:49.615Z,1.86
2019-03-24T02:34:49.598Z,1.92
2019-03-24T02:35:49.584Z,1.85
2019-03-24T02:36:49.562Z,1.93
2019-03-24T02:37:49.546Z,1.89
2019-03-24T02:38:49.523Z,1.92
2019-03-24T02:39:49.501Z,1.89
2019-03-24T02:40:49.485Z,1.88
2019-03-24T02:41:49.457Z,1.92
2019-03-24T02:42:49.443Z,1.95
2019-03-24T02:43:49.425Z,1.88
2019-03-24T02:44:49.403Z,1.88
2019-03-24T02:45:49.376Z,1.95
2019-03-24T02:46:49.367Z,1.79
2019-03-24T02:47:49.346Z,1.86
2019-03-24T02:48:49.325Z,1.84
2019-03-24T02:49:49.321Z,1.81
2019-03-24T02:50:49.284Z,1.75
2019-03-24T02:51:49.266Z,1.76
2019-03-24T02:52:49.247Z,1.75
2019-03-24T02:53:49.230Z,1.78
2019-03-24T02:54:49.203Z,1.70
2019-03-24T02:55:49.190Z,1.67
2019-03-24T02:56:49.171Z,1.70
2019-03-24T02:57:49.150Z,1.68
2019-03-24T02:58:49.129Z,1.67
2019-03-24T02:59:49.108Z,1.60
2019-03-24T03:00:49.087Z,1.67
2019-03-24T03:01:49.065Z,1.66
2019-03-24T03:02:49.127Z,1.61
2019-03-24T03:03:49.035Z,1.64
2019-03-24T03:04:49.014Z,1.63
2019-03-24T03:05:48.991Z,1.68
2019-03-24T03:06:48.980Z,1.68
2019-03-24T03:07:48.954Z,1.61
2019-03-24T03:08:48.932Z,1.56
2019-03-24T03:09:48.913Z,1.57
2019-03-24T03:10:48.897Z,1.60
2019-03-24T03:11:48.877Z,1.58
2019-03-24T03:12:48.858Z,1.58
2019-03-24T03:13:48.861Z,1.50
2019-03-24T03:14:48.826Z,1.63
2019-03-24T03:15:48.795Z,1.50
2019-03-24T03:16:48.775Z,1.56
2019-03-24T03:17:48.755Z,1.50
2019-03-24T03:18:48.737Z,1.58
2019-03-24T03:19:48.717Z,1.49
2019-03-24T03:20:48.707Z,1.56
2019-03-24T03:21:48.678Z,1.49
2019-03-24T03:22:48.657Z,1.48
2019-03-24T03:23:48.639Z,1.56
2019-03-24T03:24:48.633Z,1.45
2019-03-24T03:25:48.599Z,1.48
2019-03-24T03:26:48.610Z,1.52
2019-03-24T03:27:48.580Z,1.63
2019-03-24T03:28:48.539Z,1.50
2019-03-24T03:29:48.516Z,1.53
2019-03-24T03:30:48.498Z,1.49
2019-03-24T03:31:48.486Z,1.50
2019-03-24T03:32:48.461Z,1.52
2019-03-24T03:33:48.439Z,1.49
2019-03-24T03:34:48.427Z,1.45
2019-03-24T03:35:48.406Z,1.48
2019-03-24T03:36:48.391Z,1.46
2019-03-24T03:37:48.362Z,1.52
2019-03-24T03:38:48.343Z,1.53
2019-03-24T03:39:48.339Z,1.48
2019-03-24T03:40:48.302Z,1.43
2019-03-24T03:41:48.284Z,1.40
2019-03-24T03:42:48.274Z,1.40
2019-03-24T03:43:48.256Z,1.42
2019-03-24T03:44:48.219Z,1.32
2019-03-24T03:45:48.201Z,1.31
2019-03-24T03:46:52.978Z,1.34
2019-03-24T03:47:48.167Z,1.39
2019-03-24T03:48:48.147Z,1.39
2019-03-24T03:49:48.133Z,1.32
2019-03-24T03:50:48.104Z,1.32
2019-03-24T03:51:48.087Z,1.32
2019-03-24T03:52:48.064Z,1.34
2019-03-24T03:53:48.051Z,1.32
2019-03-24T03:54:48.027Z,1.34
2019-03-24T03:55:48.004Z,1.28
2019-03-24T03:56:47.997Z,1.31
2019-03-24T03:57:47.988Z,1.31
2019-03-24T03:58:47.946Z,1.27
2019-03-24T03:59:47.927Z,1.25
2019-03-24T04:00:47.909Z,1.25
2019-03-24T04:01:47.883Z,1.25
2019-03-24T04:02:47.865Z,1.25
2019-03-24T04:03:47.849Z,1.28
2019-03-24T04:04:47.825Z,1.21
2019-03-24T04:05:47.811Z,1.22
2019-03-24T04:06:47.789Z,1.21
2019-03-24T04:07:47.768Z,1.14
2019-03-24T04:08:47.751Z,1.14
2019-03-24T04:09:47.728Z,1.18
2019-03-24T04:10:47.713Z,1.10
2019-03-24T04:11:47.690Z,1.12
2019-03-24T04:12:47.667Z,1.20
2019-03-24T04:13:47.683Z,1.12
2019-03-24T04:14:47.632Z,1.18
2019-03-24T04:15:47.611Z,1.13
2019-03-24T04:16:47.599Z,1.16
2019-03-24T04:17:47.572Z,1.12
2019-03-24T04:18:47.548Z,1.18
2019-03-24T04:19:47.530Z,1.14
2019-03-24T04:20:47.510Z,1.13
2019-03-24T04:21:47.490Z,1.10
2019-03-24T04:22:47.469Z,1.06
2019-03-24T04:23:47.449Z,1.07
2019-03-24T04:24:47.428Z,1.09
2019-03-24T04:25:47.422Z,1.10
2019-03-24T04:26:47.390Z,1.04
2019-03-24T04:27:47.366Z,1.10
2019-03-24T04:28:47.348Z,0.99
2019-03-24T04:29:47.326Z,1.00
2019-03-24T04:30:47.319Z,1.02
2019-03-24T04:31:47.298Z,0.99
2019-03-24T04:32:47.270Z,1.04
2019-03-24T04:33:47.249Z,1.02
2019-03-24T04:34:47.233Z,1.07
2019-03-24T04:35:47.216Z,1.03
2019-03-24T04:36:47.192Z,1.02
2019-03-24T04:37:47.172Z,1.03
2019-03-24T04:38:47.151Z,1.04
2019-03-24T04:39:47.132Z,1.02
2019-03-24T04:40:47.116Z,0.95
2019-03-24T04:41:47.090Z,0.91
2019-03-24T04:42:47.072Z,1.04
2019-03-24T04:43:47.052Z,1.03
2019-03-24T04:44:47.025Z,1.06
2019-03-24T04:45:47.003Z,1.04
2019-03-24T04:46:46.992Z,1.00
2019-03-24T04:47:46.969Z,1.03
2019-03-24T04:48:46.953Z,1.00
2019-03-24T04:49:46.929Z,1.00
2019-03-24T04:50:46.909Z,1.02
2019-03-24T04:51:46.891Z,1.03
2019-03-24T04:52:46.872Z,1.06
2019-03-24T04:53:46.850Z,1.10
2019-03-24T04:54:46.832Z,1.09
2019-03-24T04:55:46.807Z,1.10
2019-03-24T04:56:46.790Z,1.10
2019-03-24T04:57:46.771Z,1.12
2019-03-24T04:58:46.743Z,1.14
2019-03-24T04:59:46.725Z,1.07
2019-03-24T05:00:46.709Z,1.07
2019-03-24T05:01:46.688Z,1.12
2019-03-24T05:02:46.670Z,1.10
2019-03-24T05:03:46.652Z,1.10
2019-03-24T05:04:46.632Z,1.10
2019-03-24T05:05:46.609Z,1.03
2019-03-24T05:06:46.594Z,1.00
2019-03-24T05:07:46.572Z,1.00
2019-03-24T05:08:46.550Z,1.07
2019-03-24T05:09:46.528Z,0.99
2019-03-24T05:10:46.510Z,0.96
2019-03-24T05:11:46.489Z,1.03
2019-03-24T05:12:46.471Z,1.02
2019-03-24T05:13:46.452Z,1.03
2019-03-24T05:14:46.433Z,0.99
2019-03-24T05:15:46.411Z,0.96
2019-03-24T05:16:46.390Z,0.95
2019-03-24T05:17:46.368Z,1.00
2019-03-24T05:18:46.350Z,0.91
2019-03-24T05:19:46.331Z,0.99
2019-03-24T05:20:46.310Z,0.92
2019-03-24T05:21:46.304Z,0.88
2019-03-24T05:22:46.270Z,0.89
2019-03-24T05:23:46.247Z,0.91
2019-03-24T05:24:46.231Z,0.91
2019-03-24T05:25:46.210Z,0.92
2019-03-24T05:26:46.201Z,0.88
2019-03-24T05:27:46.172Z,1.00
2019-03-24T05:28:46.149Z,0.88
2019-03-24T05:29:46.128Z,0.92
2019-03-24T05:30:46.119Z,0.84
2019-03-24T05:31:46.094Z,0.88
2019-03-24T05:32:46.076Z,0.85
2019-03-24T05:33:46.047Z,0.89
2019-03-24T05:34:46.026Z,1.00
2019-03-24T05:35:46.011Z,0.85
2019-03-24T05:36:45.992Z,0.85
2019-03-24T05:37:45.974Z,0.86
2019-03-24T05:38:45.945Z,1.00
2019-03-24T05:39:45.931Z,0.85
2019-03-24T05:40:45.909Z,0.86
2019-03-24T05:41:45.890Z,0.89
2019-03-24T05:42:45.872Z,0.92
2019-03-24T05:43:45.850Z,0.91
2019-03-24T05:44:45.830Z,0.88
2019-03-24T05:45:45.811Z,0.89
2019-03-24T05:46:45.796Z,0.88
2019-03-24T05:47:45.772Z,0.86
2019-03-24T05:48:45.749Z,0.91
2019-03-24T05:49:45.732Z,0.89
2019-03-24T05:50:45.709Z,0.89
2019-03-24T05:51:45.695Z,0.94
2019-03-24T05:52:45.673Z,0.94
2019-03-24T05:53:45.661Z,1.04
2019-03-24T05:54:45.627Z,1.04
2019-03-24T05:55:45.620Z,1.02
2019-03-24T05:56:45.600Z,1.02
2019-03-24T05:57:45.571Z,1.03
2019-03-24T05:58:45.551Z,1.04
2019-03-24T05:59:45.530Z,1.03
2019-03-24T06:00:45.514Z,1.09
2019-03-24T06:01:45.488Z,1.13
2019-03-24T06:02:45.482Z,1.13
2019-03-24T06:03:45.450Z,1.18
2019-03-24T06:04:45.437Z,1.18
2019-03-24T06:05:45.412Z,1.21
2019-03-24T06:06:45.395Z,1.24
2019-03-24T06:07:45.376Z,1.25
2019-03-24T06:08:45.348Z,1.31
2019-03-24T06:09:45.331Z,1.28
2019-03-24T06:10:45.318Z,1.36
2019-03-24T06:11:45.292Z,1.36
2019-03-24T06:12:45.281Z,1.40
2019-03-24T06:13:45.251Z,1.46
2019-03-24T06:14:45.235Z,1.48
2019-03-24T06:15:45.217Z,1.50
2019-03-24T06:16:45.197Z,1.53
2019-03-24T06:17:48.058Z,1.56
2019-03-24T06:18:45.156Z,1.64
2019-03-24T06:19:45.134Z,1.67
2019-03-24T06:20:45.117Z,1.67
2019-03-24T06:21:45.091Z,1.79
2019-03-24T06:22:45.068Z,1.76
2019-03-24T06:23:45.056Z,1.81
2019-03-24T06:24:45.040Z,1.92
2019-03-24T06:25:45.020Z,1.88
2019-03-24T06:26:44.992Z,2.10
2019-03-24T06:27:44.980Z,2.15
2019-03-24T06:28:44.957Z,2.12
2019-03-24T06:29:44.937Z,2.25
2019-03-24T06:30:44.921Z,2.32
2019-03-24T06:31:44.900Z,2.33
2019-03-24T06:32:44.888Z,2.39
2019-03-24T06:33:44.863Z,2.39
2019-03-24T06:34:44.844Z,2.54
2019-03-24T06:35:44.824Z,2.54
2019-03-24T06:36:44.807Z,2.54
2019-03-24T06:37:44.785Z,2.69
2019-03-24T06:38:44.760Z,2.73
2019-03-24T06:39:44.749Z,2.75
2019-03-24T06:40:44.732Z,2.94
2019-03-24T06:41:44.711Z,2.87
2019-03-24T06:42:44.690Z,3.05
2019-03-24T06:43:44.665Z,3.12
2019-03-24T06:44:44.655Z,3.11
2019-03-24T06:45:44.641Z,3.22
2019-03-24T06:46:44.612Z,3.30
2019-03-24T06:47:44.600Z,3.36
2019-03-24T06:48:44.574Z,3.43
2019-03-24T06:49:44.557Z,3.56
2019-03-24T06:50:44.543Z,3.66
2019-03-24T06:51:44.526Z,3.77
2019-03-24T06:52:44.503Z,3.89
2019-03-24T06:53:44.484Z,3.91
2019-03-24T06:54:44.466Z,3.96
2019-03-24T06:55:44.449Z,4.22
2019-03-24T06:56:44.428Z,4.22
2019-03-24T06:57:44.409Z,4.22
2019-03-24T06:58:44.398Z,4.34
2019-03-24T06:59:44.371Z,4.45
2019-03-24T07:00:44.354Z,4.50
2019-03-24T07:01:44.334Z,4.61
2019-03-24T07:02:44.314Z,4.74
2019-03-24T07:03:44.303Z,4.84
2019-03-24T07:04:44.282Z,4.87
2019-03-24T07:05:44.269Z,4.92
2019-03-24T07:06:44.251Z,5.05
2019-03-24T07:07:44.231Z,5.12
2019-03-24T07:08:44.215Z,5.16
2019-03-24T07:09:44.189Z,5.12
2019-03-24T07:10:44.174Z,5.26
2019-03-24T07:11:44.154Z,5.29
2019-03-24T07:12:44.137Z,5.44
2019-03-24T07:13:44.131Z,5.38
2019-03-24T07:14:44.114Z,5.47
2019-03-24T07:15:44.087Z,5.59
2019-03-24T07:16:44.065Z,5.61
2019-03-24T07:17:44.051Z,5.72
2019-03-24T07:18:44.031Z,5.76
2019-03-24T07:19:44.010Z,5.80
2019-03-24T07:20:43.993Z,5.92
2019-03-24T07:21:43.983Z,5.95
2019-03-24T07:22:43.976Z,6.01
2019-03-24T07:23:43.936Z,6.15
2019-03-24T07:24:43.918Z,6.22
2019-03-24T07:25:43.912Z,6.22
2019-03-24T07:26:43.896Z,6.28
2019-03-24T07:27:43.896Z,6.43
2019-03-24T07:28:43.859Z,6.57
2019-03-24T07:29:43.863Z,6.57
2019-03-24T07:30:43.821Z,6.64
2019-03-24T07:31:43.808Z,6.74
2019-03-24T07:32:43.784Z,6.80
2019-03-24T07:33:43.772Z,6.92
2019-03-24T07:34:43.752Z,7.08
2019-03-24T07:35:43.735Z,7.05
2019-03-24T07:36:43.757Z,7.15
2019-03-24T07:37:43.693Z,7.26
2019-03-24T07:38:43.687Z,7.43
2019-03-24T07:39:43.669Z,7.47
2019-03-24T07:40:43.651Z,7.58
2019-03-24T07:41:43.630Z,7.75
2019-03-24T07:42:43.644Z,7.84
2019-03-24T07:43:43.604Z,8.01
2019-03-24T07:44:43.587Z,8.08
2019-03-24T07:45:43.567Z,8.20
2019-03-24T07:46:43.553Z,8.24
2019-03-24T07:47:43.538Z,8.31
2019-03-24T07:48:43.515Z,8.32
2019-03-24T07:49:43.500Z,8.49
2019-03-24T07:50:43.485Z,8.60
2019-03-24T07:51:43.474Z,8.72
2019-03-24T07:52:43.453Z,8.82
2019-03-24T07:53:43.434Z,8.84
2019-03-24T07:54:43.422Z,9.02
2019-03-24T07:55:43.408Z,9.15
2019-03-24T07:56:43.387Z,9.30
2019-03-24T07:57:43.375Z,9.55
2019-03-24T07:58:43.360Z,9.62
2019-03-24T07:59:43.341Z,9.76
2019-03-24T08:00:43.321Z,9.80
2019-03-24T08:01:43.308Z,9.85
2019-03-24T08:02:50.803Z,9.90
2019-03-24T08:03:43.283Z,10.03
2019-03-24T08:04:43.262Z,10.15
2019-03-24T08:05:43.248Z,10.24
2019-03-24T08:06:43.229Z,10.23
2019-03-24T08:07:43.224Z,10.43
2019-03-24T08:08:44.520Z,10.48
2019-03-24T08:09:43.187Z,10.48
2019-03-24T08:10:43.175Z,10.62
2019-03-24T08:11:43.167Z,10.76
2019-03-24T08:12:43.150Z,10.72
2019-03-24T08:13:53.198Z,10.77
2019-03-24T08:14:43.113Z,10.90
2019-03-24T08:15:43.101Z,11.00
2019-03-24T08:16:43.084Z,11.04
2019-03-24T08:17:43.077Z,11.12
2019-03-24T08:18:43.055Z,11.22
2019-03-24T08:19:43.040Z,11.18
2019-03-24T08:20:43.020Z,11.30
2019-03-24T08:21:43.007Z,11.45
2019-03-24T08:22:42.998Z,11.41
2019-03-24T08:23:43.039Z,11.55
2019-03-24T08:24:42.973Z,11.60
2019-03-24T08:25:42.953Z,11.63
2019-03-24T08:26:42.939Z,11.71
2019-03-24T08:27:42.928Z,11.80
2019-03-24T08:28:42.910Z,11.89
2019-03-24T08:29:42.895Z,12.02
2019-03-24T08:30:42.883Z,12.08
2019-03-24T08:31:42.872Z,12.18
2019-03-24T08:32:42.853Z,12.23
2019-03-24T08:33:42.844Z,12.36
2019-03-24T08:34:42.828Z,12.47
2019-03-24T08:35:42.817Z,12.63
2019-03-24T08:36:42.793Z,12.57
2019-03-24T08:37:42.784Z,12.65
2019-03-24T08:38:42.784Z,12.76
2019-03-24T08:39:42.758Z,12.81
2019-03-24T08:40:42.743Z,12.93
2019-03-24T08:41:42.735Z,12.90
2019-03-24T08:42:42.721Z,12.90
2019-03-24T08:43:42.707Z,12.90
2019-03-24T08:44:42.691Z,13.02
2019-03-24T08:45:42.683Z,12.99
2019-03-24T08:46:45.112Z,13.06
2019-03-24T08:47:42.654Z,13.16
2019-03-24T08:48:42.635Z,13.30
2019-03-24T08:49:42.626Z,13.42
2019-03-24T08:50:42.611Z,13.64
2019-03-24T08:51:42.593Z,13.78
2019-03-24T08:52:42.584Z,13.86
2019-03-24T08:53:42.570Z,14.05
2019-03-24T08:54:42.558Z,14.23
2019-03-24T08:55:42.542Z,14.34
2019-03-24T08:56:42.530Z,14.43
2019-03-24T08:57:42.531Z,14.68
2019-03-24T08:58:42.508Z,14.81
2019-03-24T08:59:42.500Z,14.99
2019-03-24T09:00:42.480Z,15.11
2019-03-24T09:01:42.470Z,15.17
2019-03-24T09:02:42.461Z,15.27
2019-03-24T09:03:42.445Z,15.32
2019-03-24T09:04:42.434Z,15.37
2019-03-24T09:05:42.420Z,15.43
2019-03-24T09:06:42.408Z,15.55
2019-03-24T09:07:42.393Z,15.72
2019-03-24T09:08:42.386Z,15.84
2019-03-24T09:09:42.374Z,15.90
2019-03-24T09:10:42.366Z,15.88
2019-03-24T09:11:42.349Z,16.05
2019-03-24T09:12:42.351Z,16.25
2019-03-24T09:13:42.327Z,16.18
2019-03-24T09:14:42.322Z,16.36
2019-03-24T09:15:43.326Z,16.28
2019-03-24T09:16:42.289Z,16.25
2019-03-24T09:17:42.361Z,16.17
2019-03-24T09:18:52.213Z,16.09
2019-03-24T09:19:42.257Z,16.00
2019-03-24T09:20:42.240Z,15.90
2019-03-24T09:21:42.234Z,15.98
2019-03-24T09:22:42.219Z,15.99
2019-03-24T09:23:42.210Z,15.88
2019-03-24T09:24:42.199Z,15.96
2019-03-24T09:25:42.186Z,15.85
2019-03-24T09:26:42.177Z,15.91
2019-03-24T09:27:42.166Z,16.00
2019-03-24T09:28:42.152Z,15.99
2019-03-24T09:29:42.141Z,15.88
2019-03-24T09:30:42.128Z,15.91
2019-03-24T09:31:42.115Z,15.91
2019-03-24T09:32:42.104Z,15.80
2019-03-24T09:33:42.096Z,15.78
2019-03-24T09:34:42.083Z,15.69
2019-03-24T09:35:42.070Z,15.78
2019-03-24T09:36:42.091Z,15.67
2019-03-24T09:37:42.078Z,15.75
2019-03-24T09:38:42.032Z,15.78
2019-03-24T09:39:42.024Z,15.92
2019-03-24T09:40:42.011Z,16.03
2019-03-24T09:41:42.003Z,16.18
2019-03-24T09:42:41.986Z,16.51
2019-03-24T09:43:41.974Z,16.79
2019-03-24T09:44:41.962Z,17.09
2019-03-24T09:45:41.956Z,17.32
2019-03-24T09:46:41.938Z,17.60
2019-03-24T09:47:41.931Z,17.73
2019-03-24T09:48:41.921Z,17.94
2019-03-24T09:49:41.907Z,18.34
2019-03-24T09:50:41.901Z,18.68
2019-03-24T09:51:41.889Z,18.83
2019-03-24T09:52:41.876Z,19.29
2019-03-24T09:53:41.868Z,19.59
2019-03-24T09:54:41.856Z,19.78
2019-03-24T09:55:41.849Z,20.04
2019-03-24T09:56:41.837Z,20.17
2019-03-24T09:57:41.831Z,20.46
2019-03-24T09:58:41.819Z,20.59
2019-03-24T09:59:41.812Z,20.68
2019-03-24T10:00:41.803Z,20.74
2019-03-24T10:01:41.794Z,20.88
2019-03-24T10:02:41.786Z,21.00
2019-03-24T10:03:41.777Z,21.04
2019-03-24T10:04:41.768Z,21.07
2019-03-24T10:05:41.761Z,21.17
2019-03-24T10:06:41.752Z,21.20
2019-03-24T10:07:41.745Z,21.22
2019-03-24T10:08:47.018Z,21.26
2019-03-24T10:09:41.728Z,21.44
2019-03-24T10:10:41.719Z,21.44
2019-03-24T10:11:41.712Z,21.28
2019-03-24T10:12:41.708Z,21.22
2019-03-24T10:13:41.699Z,21.10
2019-03-24T10:14:41.687Z,21.00
2019-03-24T10:15:41.683Z,20.98
2019-03-24T10:16:41.673Z,20.85
2019-03-24T10:17:41.665Z,20.75
2019-03-24T10:18:41.655Z,20.71
2019-03-24T10:19:41.647Z,20.68
2019-03-24T10:20:41.639Z,20.53
2019-03-24T10:21:41.633Z,20.52
2019-03-24T10:22:41.622Z,20.53
2019-03-24T10:23:41.615Z,20.58
2019-03-24T10:24:41.605Z,20.66
2019-03-24T10:25:41.606Z,20.67
2019-03-24T10:26:41.589Z,20.67
2019-03-24T10:27:41.589Z,20.68
2019-03-24T10:28:41.570Z,20.71
2019-03-24T10:29:41.563Z,20.70
2019-03-24T10:30:41.557Z,20.93
2019-03-24T10:31:42.664Z,21.04
2019-03-24T10:32:41.587Z,21.10
2019-03-24T10:33:41.530Z,21.26
2019-03-24T10:34:41.525Z,21.45
2019-03-24T10:35:41.546Z,21.53
2019-03-24T10:36:41.503Z,21.68
2019-03-24T10:37:41.507Z,21.70
2019-03-24T10:38:41.491Z,21.66
2019-03-24T10:39:41.486Z,21.69
2019-03-24T10:40:41.480Z,21.75
2019-03-24T10:41:41.488Z,21.84
2019-03-24T10:42:41.475Z,21.99
2019-03-24T10:43:41.482Z,22.07
2019-03-24T10:44:41.441Z,22.26
2019-03-24T10:45:41.440Z,22.31
2019-03-24T10:46:41.433Z,22.43
2019-03-24T10:47:41.431Z,22.41
2019-03-24T10:48:41.422Z,22.41
2019-03-24T10:49:41.417Z,22.51
2019-03-24T10:50:41.409Z,22.71
2019-03-24T10:51:41.403Z,22.86
2019-03-24T10:52:41.399Z,22.95
2019-03-24T10:53:41.384Z,23.02
2019-03-24T10:54:41.384Z,22.95
2019-03-24T10:55:41.377Z,23.08
2019-03-24T10:56:41.372Z,23.32
2019-03-24T10:57:41.368Z,23.36
2019-03-24T10:58:41.358Z,23.28
2019-03-24T10:59:41.353Z,23.44
2019-03-24T11:00:41.347Z,23.48
2019-03-24T11:01:41.340Z,23.48
2019-03-24T11:02:41.332Z,23.67
2019-03-24T11:03:41.332Z,23.71
2019-03-24T11:04:41.319Z,23.77
2019-03-24T11:05:41.364Z,23.82
2019-03-24T11:06:41.313Z,23.91
2019-03-24T11:07:41.307Z,23.99
2019-03-24T11:08:41.300Z,24.00
2019-03-24T11:09:41.293Z,23.92
2019-03-24T11:10:41.295Z,23.91
2019-03-24T11:11:41.292Z,23.94
2019-03-24T11:12:41.315Z,23.79
2019-03-24T11:13:41.274Z,23.79
2019-03-24T11:14:41.259Z,23.73
2019-03-24T11:15:41.260Z,23.76
2019-03-24T11:16:41.255Z,23.74
2019-03-24T11:17:41.278Z,23.84
2019-03-24T11:18:41.244Z,23.96
2019-03-24T11:19:41.239Z,24.10
2019-03-24T11:20:41.254Z,24.26
2019-03-24T11:21:41.229Z,24.43
2019-03-24T11:22:41.226Z,24.34
2019-03-24T11:23:41.217Z,24.44
2019-03-24T11:24:41.213Z,24.62
2019-03-24T11:25:41.206Z,24.48
2019-03-24T11:26:41.202Z,24.55
2019-03-24T11:27:41.203Z,24.40
2019-03-24T11:28:41.193Z,24.43
2019-03-24T11:29:41.192Z,24.40
2019-03-24T11:30:41.256Z,24.47
2019-03-24T11:31:41.179Z,24.34
2019-03-24T11:32:41.178Z,24.51
2019-03-24T11:33:41.170Z,24.51
2019-03-24T11:34:41.166Z,24.47
2019-03-24T11:35:41.159Z,24.50
2019-03-24T11:36:41.150Z,24.44
2019-03-24T11:37:41.152Z,24.32
2019-03-24T11:38:41.149Z,24.32
2019-03-24T11:39:41.169Z,24.25
2019-03-24T11:40:41.137Z,24.22
2019-03-24T11:41:41.136Z,24.31
2019-03-24T11:42:41.127Z,24.36
2019-03-24T11:43:41.125Z,24.43
2019-03-24T11:44:41.120Z,24.37
2019-03-24T11:45:41.112Z,24.19
2019-03-24T11:46:41.111Z,24.10
2019-03-24T11:47:41.105Z,24.06
2019-03-24T11:48:41.100Z,23.94
2019-03-24T11:49:45.888Z,23.94
2019-03-24T11:50:41.121Z,23.92
2019-03-24T11:51:41.096Z,23.89
2019-03-24T11:52:41.079Z,23.95
2019-03-24T11:53:41.109Z,23.85
2019-03-24T11:54:41.072Z,23.73
2019-03-24T11:55:41.065Z,23.74
2019-03-24T11:56:41.061Z,23.66
2019-03-24T11:57:41.050Z,23.55
2019-03-24T11:58:41.094Z,23.48
2019-03-24T11:59:41.045Z,23.49
2019-03-24T12:00:41.037Z,23.51
2019-03-24T12:01:41.030Z,23.58
2019-03-24T12:02:41.025Z,23.59
2019-03-24T12:03:41.020Z,23.59
2019-03-24T12:04:41.014Z,23.56
2019-03-24T12:05:41.015Z,23.62
2019-03-24T12:06:41.005Z,23.67
2019-03-24T12:07:41.002Z,23.54
2019-03-24T12:08:40.995Z,23.45
2019-03-24T12:09:41.019Z,23.42
2019-03-24T12:10:40.984Z,23.32
2019-03-24T12:11:40.976Z,23.33
2019-03-24T12:12:40.971Z,23.37
2019-03-24T12:13:40.966Z,23.42
2019-03-24T12:14:40.978Z,23.11
2019-03-24T12:15:40.955Z,22.99
2019-03-24T12:16:40.947Z,22.84
2019-03-24T12:17:40.944Z,22.61
2019-03-24T12:18:40.942Z,22.52
2019-03-24T12:19:40.931Z,22.34
2019-03-24T12:20:40.952Z,22.19
2019-03-24T12:21:40.918Z,22.06
2019-03-24T12:22:40.914Z,21.84
2019-03-24T12:23:40.906Z,21.77
2019-03-24T12:24:40.898Z,21.68
2019-03-24T12:25:40.892Z,21.60
2019-03-24T12:26:40.886Z,21.43
2019-03-24T12:27:40.879Z,21.38
2019-03-24T12:28:40.878Z,21.17
2019-03-24T12:29:40.860Z,21.04
2019-03-24T12:30:40.857Z,20.85
2019-03-24T12:31:40.848Z,20.88
2019-03-24T12:32:40.842Z,20.67
2019-03-24T12:33:41.228Z,20.68
2019-03-24T12:34:40.825Z,20.67
2019-03-24T12:35:40.941Z,20.73
2019-03-24T12:36:40.809Z,20.78
2019-03-24T12:37:40.853Z,20.89
2019-03-24T12:38:40.809Z,20.83
2019-03-24T12:39:40.792Z,20.83
2019-03-24T12:40:40.782Z,21.03
2019-03-24T12:41:40.764Z,20.89
2019-03-24T12:42:40.770Z,20.86
2019-03-24T12:43:40.751Z,20.86
2019-03-24T12:44:40.742Z,20.71
2019-03-24T12:45:40.745Z,20.70
2019-03-24T12:46:40.727Z,20.70
2019-03-24T12:47:40.745Z,20.66
2019-03-24T12:48:40.710Z,20.66
2019-03-24T12:49:40.700Z,20.66
2019-03-24T12:50:40.688Z,20.70
2019-03-24T12:51:40.685Z,20.50
2019-03-24T12:52:40.684Z,20.42
2019-03-24T12:53:40.664Z,20.37
2019-03-24T12:54:40.661Z,20.18
2019-03-24T12:55:40.651Z,20.14
2019-03-24T12:56:40.643Z,20.02
2019-03-24T12:57:40.629Z,19.84
2019-03-24T12:58:40.626Z,19.74
2019-03-24T12:59:40.612Z,19.66
2019-03-24T13:00:40.633Z,19.48
2019-03-24T13:01:40.595Z,19.49
2019-03-24T13:02:40.595Z,19.37
2019-03-24T13:03:40.576Z,19.41
2019-03-24T13:04:40.564Z,19.24
2019-03-24T13:05:40.555Z,19.17
2019-03-24T13:06:40.547Z,19.11
2019-03-24T13:07:40.540Z,19.00
2019-03-24T13:08:40.532Z,19.01